sensor_id;sensor_type;location;lat;lon;timestamp;pressure;altitude;pressure_sealevel;temperature;humidity
53671;BME280;39571;48.612;8.088;2023-03-04T07:56:17;100657.97;;;-0.04;100.00
53671;BME280;39571;48.612;8.088;2023-03-04T08:06:56;100652.59;;;0.31;100.00
53671;BME280;39571;48.612;8.088;2023-03-04T08:17:06;100664.75;;;0.77;100.00
53671;BME280;39571;48.612;8.088;2023-03-04T08:32:27;100652.63;;;2.36;100.00
53671;BME280;39571;48.612;8.088;2023-03-04T08:34:53;100655.38;;;2.67;100.00
53671;BME280;39571;48.612;8.088;2023-03-04T08:37:20;100659.09;;;3.30;100.00
53671;BME280;39571;48.612;8.088;2023-03-04T08:39:45;100657.66;;;3.70;100.00
53671;BME280;39571;48.612;8.088;2023-03-04T08:42:10;100661.72;;;4.23;100.00
53671;BME280;39571;48.612;8.088;2023-03-04T08:44:36;100662.16;;;4.72;100.00
53671;BME280;39571;48.612;8.088;2023-03-04T08:47:01;100663.25;;;5.19;100.00
53671;BME280;39571;48.612;8.088;2023-03-04T08:49:26;100655.41;;;5.56;100.00
53671;BME280;39571;48.612;8.088;2023-03-04T08:51:52;100661.56;;;6.02;100.00
53671;BME280;39571;48.612;8.088;2023-03-04T08:54:17;100654.75;;;6.55;100.00
53671;BME280;39571;48.612;8.088;2023-03-04T08:56:42;100653.56;;;6.90;100.00
53671;BME280;39571;48.612;8.088;2023-03-04T08:59:07;100647.75;;;7.05;100.00
53671;BME280;39571;48.612;8.088;2023-03-04T09:01:33;100642.44;;;7.60;100.00
53671;BME280;39571;48.612;8.088;2023-03-04T09:03:58;100645.59;;;8.06;100.00
53671;BME280;39571;48.612;8.088;2023-03-04T09:06:23;100643.94;;;8.17;100.00
53671;BME280;39571;48.612;8.088;2023-03-04T09:08:49;100637.50;;;8.65;100.00
53671;BME280;39571;48.612;8.088;2023-03-04T09:11:15;100636.09;;;9.09;100.00
53671;BME280;39571;48.612;8.088;2023-03-04T09:13:40;100630.19;;;9.42;100.00
53671;BME280;39571;48.612;8.088;2023-03-04T09:16:13;100634.53;;;9.41;100.00
53671;BME280;39571;48.612;8.088;2023-03-04T09:18:40;100625.19;;;9.95;100.00
53671;BME280;39571;48.612;8.088;2023-03-04T09:21:06;100616.59;;;10.46;100.00
53671;BME280;39571;48.612;8.088;2023-03-04T09:23:33;100617.44;;;11.01;100.00
53671;BME280;39571;48.612;8.088;2023-03-04T09:25:58;100620.81;;;11.51;95.04
53671;BME280;39571;48.612;8.088;2023-03-04T09:28:23;100611.78;;;12.16;85.69
53671;BME280;39571;48.612;8.088;2023-03-04T09:30:49;100603.66;;;12.52;80.87
53671;BME280;39571;48.612;8.088;2023-03-04T09:33:14;100599.09;;;13.59;77.00
53671;BME280;39571;48.612;8.088;2023-03-04T09:35:40;100602.56;;;13.63;67.75
53671;BME280;39571;48.612;8.088;2023-03-04T09:38:05;100603.66;;;12.52;67.96
53671;BME280;39571;48.612;8.088;2023-03-04T09:40:45;100605.09;;;13.71;66.41
53671;BME280;39571;48.612;8.088;2023-03-04T09:43:21;100605.66;;;13.94;62.69
53671;BME280;39571;48.612;8.088;2023-03-04T09:45:52;100599.31;;;14.07;60.23
53671;BME280;39571;48.612;8.088;2023-03-04T09:48:21;100605.03;;;14.38;57.76
53671;BME280;39571;48.612;8.088;2023-03-04T09:51:05;100599.31;;;14.10;57.35
53671;BME280;39571;48.612;8.088;2023-03-04T09:56:09;100597.38;;;14.78;54.38
53671;BME280;39571;48.612;8.088;2023-03-04T10:01:21;100606.56;;;15.06;51.78
53671;BME280;39571;48.612;8.088;2023-03-04T10:04:02;100608.06;;;14.70;52.35
53671;BME280;39571;48.612;8.088;2023-03-04T10:06:30;100605.28;;;14.78;51.25
53671;BME280;39571;48.612;8.088;2023-03-04T10:09:16;100597.19;;;14.88;50.55
53671;BME280;39571;48.612;8.088;2023-03-04T10:11:47;100597.50;;;14.70;50.31
53671;BME280;39571;48.612;8.088;2023-03-04T10:19:54;100597.63;;;14.62;49.22
53671;BME280;39571;48.612;8.088;2023-03-04T10:22:34;100600.91;;;15.24;49.39
53671;BME280;39571;48.612;8.088;2023-03-04T10:27:41;100600.75;;;15.33;47.12
53671;BME280;39571;48.612;8.088;2023-03-04T10:30:22;100595.94;;;15.09;46.63
53671;BME280;39571;48.612;8.088;2023-03-04T10:32:50;100594.56;;;14.88;47.29
53671;BME280;39571;48.612;8.088;2023-03-04T10:35:25;100601.34;;;15.03;46.96
53671;BME280;39571;48.612;8.088;2023-03-04T10:37:51;100595.34;;;14.41;47.37
53671;BME280;39571;48.612;8.088;2023-03-04T10:40:23;100600.88;;;13.56;50.03
53671;BME280;39571;48.612;8.088;2023-03-04T10:42:49;100604.44;;;12.63;52.35
53671;BME280;39571;48.612;8.088;2023-03-04T10:45:22;100601.44;;;11.90;53.82
53671;BME280;39571;48.612;8.088;2023-03-04T10:47:56;100601.69;;;11.07;57.17
53671;BME280;39571;48.612;8.088;2023-03-04T10:50:27;100595.66;;;10.70;59.59
53671;BME280;39571;48.612;8.088;2023-03-04T10:52:54;100600.00;;;10.27;61.07
53671;BME280;39571;48.612;8.088;2023-03-04T10:55:41;100607.75;;;9.97;64.94
53671;BME280;39571;48.612;8.088;2023-03-04T10:58:13;100600.69;;;9.73;67.47
53671;BME280;39571;48.612;8.088;2023-03-04T11:00:40;100594.47;;;9.42;72.28
53671;BME280;39571;48.612;8.088;2023-03-04T11:06:24;100589.91;;;8.99;77.81
53671;BME280;39571;48.612;8.088;2023-03-04T11:08:57;100599.34;;;8.82;81.51
53671;BME280;39571;48.612;8.088;2023-03-04T11:11:26;100590.59;;;8.74;82.13
53671;BME280;39571;48.612;8.088;2023-03-04T11:13:58;100590.59;;;8.77;85.78
53671;BME280;39571;48.612;8.088;2023-03-04T11:16:29;100591.38;;;8.62;85.69
53671;BME280;39571;48.612;8.088;2023-03-04T11:19:03;100584.38;;;8.56;88.53
53671;BME280;39571;48.612;8.088;2023-03-04T11:21:35;100576.50;;;8.50;90.87
53671;BME280;39571;48.612;8.088;2023-03-04T11:24:13;100582.53;;;8.45;90.16
53671;BME280;39571;48.612;8.088;2023-03-04T11:26:45;100575.59;;;8.45;90.04
53671;BME280;39571;48.612;8.088;2023-03-04T11:29:25;100575.44;;;8.29;91.15
53671;BME280;39571;48.612;8.088;2023-03-04T11:32:14;100575.53;;;8.39;96.07
53671;BME280;39571;48.612;8.088;2023-03-04T11:34:49;100568.53;;;8.32;95.06
53671;BME280;39571;48.612;8.088;2023-03-04T11:39:57;100566.94;;;8.48;98.29
53671;BME280;39571;48.612;8.088;2023-03-04T11:42:36;100564.28;;;8.43;94.50
53671;BME280;39571;48.612;8.088;2023-03-04T11:45:04;100558.22;;;8.44;96.57
53671;BME280;39571;48.612;8.088;2023-03-04T11:47:38;100564.22;;;8.34;96.09
53671;BME280;39571;48.612;8.088;2023-03-04T11:50:22;100560.72;;;8.35;97.26
53671;BME280;39571;48.612;8.088;2023-03-04T11:53:14;100555.53;;;8.38;96.73
53671;BME280;39571;48.612;8.088;2023-03-04T12:04:42;100541.75;;;8.51;95.12
53671;BME280;39571;48.612;8.088;2023-03-04T12:10:24;100528.69;;;8.53;96.00
53671;BME280;39571;48.612;8.088;2023-03-04T12:15:46;100532.31;;;8.73;95.92
53671;BME280;39571;48.612;8.088;2023-03-04T12:26:29;100513.97;;;8.66;93.46
53671;BME280;39571;48.612;8.088;2023-03-04T12:29:14;100514.00;;;8.64;93.59
53671;BME280;39571;48.612;8.088;2023-03-04T12:35:07;100503.63;;;8.75;92.52
53671;BME280;39571;48.612;8.088;2023-03-04T12:38:01;100501.88;;;8.75;90.76
53671;BME280;39571;48.612;8.088;2023-03-04T12:40:48;100499.22;;;8.66;88.93
53671;BME280;39571;48.612;8.088;2023-03-04T12:43:33;100496.63;;;8.68;89.46
53671;BME280;39571;48.612;8.088;2023-03-04T12:46:06;100494.06;;;8.75;90.68
53671;BME280;39571;48.612;8.088;2023-03-04T12:48:38;100494.91;;;8.73;88.98
53671;BME280;39571;48.612;8.088;2023-03-04T12:51:29;100490.50;;;8.61;91.04
53671;BME280;39571;48.612;8.088;2023-03-04T12:54:10;100496.50;;;8.52;90.41
53671;BME280;39571;48.612;8.088;2023-03-04T12:56:44;100499.06;;;8.45;89.30
53671;BME280;39571;48.612;8.088;2023-03-04T12:59:16;100496.28;;;8.24;90.52
53671;BME280;39571;48.612;8.088;2023-03-04T13:01:51;100496.13;;;8.07;92.56
53671;BME280;39571;48.612;8.088;2023-03-04T13:04:34;100497.06;;;8.12;92.57
53671;BME280;39571;48.612;8.088;2023-03-04T13:09:49;100487.41;;;8.02;97.53
53671;BME280;39571;48.612;8.088;2023-03-04T13:12:23;100490.88;;;8.01;96.45
53671;BME280;39571;48.612;8.088;2023-03-04T13:17:46;100486.31;;;7.77;100.00
53671;BME280;39571;48.612;8.088;2023-03-04T13:20:33;100486.38;;;7.82;100.00
53671;BME280;39571;48.612;8.088;2023-03-04T13:25:39;100482.81;;;7.72;100.00
53671;BME280;39571;48.612;8.088;2023-03-04T13:43:51;100466.16;;;7.59;100.00
53671;BME280;39571;48.612;8.088;2023-03-04T13:48:50;100467.94;;;7.60;100.00
53671;BME280;39571;48.612;8.088;2023-03-04T13:51:28;100475.59;;;7.47;100.00
53671;BME280;39571;48.612;8.088;2023-03-04T13:54:06;100476.34;;;7.38;100.00
53671;BME280;39571;48.612;8.088;2023-03-04T13:56:39;100473.69;;;7.31;100.00
53671;BME280;39571;48.612;8.088;2023-03-04T14:04:27;100466.16;;;7.56;100.00
53671;BME280;39571;48.612;8.088;2023-03-04T14:06:55;100459.16;;;7.52;100.00
53671;BME280;39571;48.612;8.088;2023-03-04T14:09:31;100457.31;;;7.42;100.00
53671;BME280;39571;48.612;8.088;2023-03-04T14:11:58;100462.50;;;7.39;100.00
53671;BME280;39571;48.612;8.088;2023-03-04T14:14:29;100457.16;;;7.27;100.00
53671;BME280;39571;48.612;8.088;2023-03-04T14:16:59;100460.50;;;7.17;100.00
53671;BME280;39571;48.612;8.088;2023-03-04T14:19:29;100461.38;;;7.16;100.00
53671;BME280;39571;48.612;8.088;2023-03-04T14:21:56;100454.47;;;7.20;100.00
53671;BME280;39571;48.612;8.088;2023-03-04T14:24:24;100453.59;;;7.19;100.00
53671;BME280;39571;48.612;8.088;2023-03-04T14:26:49;100453.63;;;7.22;100.00
53671;BME280;39571;48.612;8.088;2023-03-04T14:29:28;100450.91;;;7.10;100.00
53671;BME280;39571;48.612;8.088;2023-03-04T14:31:55;100446.53;;;7.09;100.00
53671;BME280;39571;48.612;8.088;2023-03-04T14:34:33;100450.91;;;7.11;100.00
53671;BME280;39571;48.612;8.088;2023-03-04T14:37:00;100448.19;;;7.04;100.00
53671;BME280;39571;48.612;8.088;2023-03-04T14:39:29;100455.16;;;7.05;100.00
53671;BME280;39571;48.612;8.088;2023-03-04T14:41:57;100444.72;;;7.02;100.00
53671;BME280;39571;48.612;8.088;2023-03-04T14:44:34;100441.28;;;7.03;100.00
53671;BME280;39571;48.612;8.088;2023-03-04T14:49:46;100441.28;;;7.03;100.00
53671;BME280;39571;48.612;8.088;2023-03-04T14:52:36;100442.06;;;6.97;100.00
53671;BME280;39571;48.612;8.088;2023-03-04T14:57:41;100441.06;;;6.88;100.00
53671;BME280;39571;48.612;8.088;2023-03-04T15:00:36;100437.47;;;6.77;100.00
53671;BME280;39571;48.612;8.088;2023-03-04T15:03:06;100433.06;;;6.73;100.00
53671;BME280;39571;48.612;8.088;2023-03-04T15:05:40;100434.72;;;6.66;100.00
53671;BME280;39571;48.612;8.088;2023-03-04T15:08:21;100436.22;;;6.47;100.00
53671;BME280;39571;48.612;8.088;2023-03-04T15:10:56;100440.50;;;6.45;100.00
53671;BME280;39571;48.612;8.088;2023-03-04T15:13:42;100442.16;;;6.37;100.00
53671;BME280;39571;48.612;8.088;2023-03-04T15:16:09;100442.00;;;6.28;100.00
53671;BME280;39571;48.612;8.088;2023-03-04T15:18:35;100440.06;;;6.15;100.00
53671;BME280;39571;48.612;8.088;2023-03-04T15:23:30;100441.63;;;6.04;100.00
53671;BME280;39571;48.612;8.088;2023-03-04T15:26:01;100443.13;;;5.90;100.00
53671;BME280;39571;48.612;8.088;2023-03-04T15:28:36;100440.34;;;5.81;100.00
53671;BME280;39571;48.612;8.088;2023-03-04T15:31:03;100436.00;;;5.80;100.00
53671;BME280;39571;48.612;8.088;2023-03-04T15:33:29;100438.53;;;5.77;100.00
53671;BME280;39571;48.612;8.088;2023-03-04T15:35:56;100442.81;;;5.72;100.00
53671;BME280;39571;48.612;8.088;2023-03-04T15:38:23;100440.94;;;5.65;100.00
53671;BME280;39571;48.612;8.088;2023-03-04T15:40:49;100431.44;;;5.65;100.00
53671;BME280;39571;48.612;8.088;2023-03-04T15:43:17;100431.44;;;5.65;100.00
53671;BME280;39571;48.612;8.088;2023-03-04T15:45:43;100430.44;;;5.58;100.00
53671;BME280;39571;48.612;8.088;2023-03-04T15:48:11;100432.19;;;5.59;100.00
53671;BME280;39571;48.612;8.088;2023-03-04T15:50:40;100432.09;;;5.53;100.00
53671;BME280;39571;48.612;8.088;2023-03-04T15:53:08;100435.38;;;5.43;100.00
53671;BME280;39571;48.612;8.088;2023-03-04T15:55:34;100439.75;;;5.46;100.00
53671;BME280;39571;48.612;8.088;2023-03-04T15:58:00;100438.88;;;5.45;100.00
53671;BME280;39571;48.612;8.088;2023-03-04T16:00:27;100434.41;;;5.37;100.00
53671;BME280;39571;48.612;8.088;2023-03-04T16:02:52;100442.09;;;5.32;100.00
53671;BME280;39571;48.612;8.088;2023-03-04T16:05:18;100437.63;;;5.25;100.00
53671;BME280;39571;48.612;8.088;2023-03-04T16:07:46;100437.47;;;5.18;100.00
53671;BME280;39571;48.612;8.088;2023-03-04T16:10:26;100436.53;;;5.14;100.00
53671;BME280;39571;48.612;8.088;2023-03-04T16:12:53;100440.75;;;5.07;100.00
53671;BME280;39571;48.612;8.088;2023-03-04T16:15:21;100433.78;;;5.05;100.00
53671;BME280;39571;48.612;8.088;2023-03-04T16:17:47;100430.09;;;4.94;100.00
53671;BME280;39571;48.612;8.088;2023-03-04T16:20:15;100436.06;;;4.90;100.00
53671;BME280;39571;48.612;8.088;2023-03-04T16:22:42;100432.59;;;4.88;100.00
53671;BME280;39571;48.612;8.088;2023-03-04T16:25:10;100434.19;;;4.83;100.00
53671;BME280;39571;48.612;8.088;2023-03-04T16:27:36;100436.66;;;4.77;100.00
53671;BME280;39571;48.612;8.088;2023-03-04T16:30:01;100436.50;;;4.69;100.00
53671;BME280;39571;48.612;8.088;2023-03-04T16:32:26;100435.66;;;4.69;100.00
53671;BME280;39571;48.612;8.088;2023-03-04T16:34:52;100443.28;;;4.63;100.00
53671;BME280;39571;48.612;8.088;2023-03-04T16:37:19;100441.47;;;4.58;100.00
53671;BME280;39571;48.612;8.088;2023-03-04T16:39:45;100442.25;;;4.54;100.00
53671;BME280;39571;48.612;8.088;2023-03-04T16:42:17;100437.88;;;4.52;100.00
53671;BME280;39571;48.612;8.088;2023-03-04T16:44:45;100441.31;;;4.51;100.00
53671;BME280;39571;48.612;8.088;2023-03-04T16:47:10;100444.69;;;4.48;100.00
53671;BME280;39571;48.612;8.088;2023-03-04T16:49:36;100448.91;;;4.43;100.00
53671;BME280;39571;48.612;8.088;2023-03-04T16:52:02;100448.78;;;4.37;100.00
53671;BME280;39571;48.612;8.088;2023-03-04T16:54:29;100446.91;;;4.30;100.00
53671;BME280;39571;48.612;8.088;2023-03-04T16:56:56;100450.31;;;4.29;100.00
53671;BME280;39571;48.612;8.088;2023-03-04T16:59:23;100453.69;;;4.25;100.00
53671;BME280;39571;48.612;8.088;2023-03-04T17:01:50;100455.38;;;4.23;100.00
53671;BME280;39571;48.612;8.088;2023-03-04T17:04:16;100451.78;;;4.18;100.00
53671;BME280;39571;48.612;8.088;2023-03-04T17:06:42;100453.41;;;4.13;100.00
53671;BME280;39571;48.612;8.088;2023-03-04T17:09:07;100455.00;;;4.08;100.00
53671;BME280;39571;48.612;8.088;2023-03-04T17:11:34;100454.72;;;3.96;100.00
53671;BME280;39571;48.612;8.088;2023-03-04T17:14:00;100451.13;;;3.91;100.00
53671;BME280;39571;48.612;8.088;2023-03-04T17:16:26;100457.81;;;3.83;100.00
53671;BME280;39571;48.612;8.088;2023-03-04T17:18:51;100466.31;;;3.76;100.00
53671;BME280;39571;48.612;8.088;2023-03-04T17:21:20;100464.56;;;3.75;100.00
53671;BME280;39571;48.612;8.088;2023-03-04T17:23:47;100455.78;;;3.70;100.00
53671;BME280;39571;48.612;8.088;2023-03-04T17:26:12;100463.41;;;3.64;100.00
53671;BME280;39571;48.612;8.088;2023-03-04T17:28:39;100462.50;;;3.62;100.00
53671;BME280;39571;48.612;8.088;2023-03-04T17:31:09;100464.91;;;3.55;100.00
53671;BME280;39571;48.612;8.088;2023-03-04T17:33:35;100468.34;;;3.54;100.00
53671;BME280;39571;48.612;8.088;2023-03-04T17:36:00;100476.78;;;3.47;100.00
53671;BME280;39571;48.612;8.088;2023-03-04T17:38:25;100476.78;;;3.47;100.00
53671;BME280;39571;48.612;8.088;2023-03-04T17:40:51;100486.13;;;3.42;100.00
53671;BME280;39571;48.612;8.088;2023-03-04T17:43:16;100479.91;;;3.36;100.00
